createdAt,value
2023-02-20T00:01:25.206Z,1.80
2023-02-20T00:04:00.768Z,1.70
2023-02-20T00:06:29.571Z,1.80
2023-02-20T00:08:57.481Z,1.50
2023-02-20T00:11:30.122Z,1.40
2023-02-20T00:13:58.044Z,1.50
2023-02-20T00:16:26.315Z,1.60
2023-02-20T00:18:54.421Z,1.80
2023-02-20T00:21:23.523Z,1.60
2023-02-20T00:23:57.233Z,1.60
2023-02-20T00:26:25.405Z,1.50
2023-02-20T00:28:57.656Z,1.80
2023-02-20T00:31:29.511Z,1.50
2023-02-20T00:33:58.712Z,1.50
2023-02-20T00:36:27.684Z,1.50
2023-02-20T00:38:55.589Z,1.40
2023-02-20T00:41:25.098Z,1.40
2023-02-20T00:43:56.430Z,1.50
2023-02-20T00:46:24.605Z,1.80
2023-02-20T00:48:53.195Z,1.40
2023-02-20T00:54:07.889Z,1.50
2023-02-20T00:56:37.042Z,1.40
2023-02-20T00:59:05.429Z,1.50
2023-02-20T01:01:33.596Z,1.50
2023-02-20T01:04:01.588Z,1.50
2023-02-20T01:06:30.293Z,1.50
2023-02-20T01:08:58.429Z,1.70
2023-02-20T01:14:02.889Z,1.50
2023-02-20T01:16:31.645Z,1.30
2023-02-20T01:19:00.068Z,1.70
2023-02-20T01:21:28.105Z,1.60
2023-02-20T01:23:56.407Z,1.20
2023-02-20T01:26:24.469Z,1.50
2023-02-20T01:28:52.708Z,1.50
2023-02-20T01:31:21.341Z,1.40
2023-02-20T01:33:49.389Z,1.30
2023-02-20T01:36:17.421Z,1.30
2023-02-20T01:38:45.314Z,1.40
2023-02-20T01:41:13.277Z,1.50
2023-02-20T01:43:41.546Z,1.40
2023-02-20T01:46:39.509Z,1.50
2023-02-20T01:49:12.912Z,1.30
2023-02-20T01:51:54.030Z,1.40
2023-02-20T01:54:23.253Z,1.50
2023-02-20T01:56:51.290Z,1.40
2023-02-20T01:59:20.163Z,1.70
2023-02-20T02:01:48.838Z,1.50
2023-02-20T02:04:16.802Z,1.40
2023-02-20T02:06:48.343Z,1.30
2023-02-20T02:09:21.790Z,1.50
2023-02-20T02:11:53.934Z,1.40
2023-02-20T02:14:22.041Z,1.40
2023-02-20T02:17:29.395Z,1.40
2023-02-20T02:20:02.633Z,1.40
2023-02-20T02:22:46.096Z,1.30
2023-02-20T02:25:49.766Z,1.40
2023-02-20T02:28:21.709Z,1.30
2023-02-20T02:31:09.385Z,1.40
2023-02-20T02:33:57.963Z,1.60
2023-02-20T02:37:02.983Z,1.50
2023-02-20T02:39:35.840Z,1.30
2023-02-20T02:42:09.023Z,1.20
2023-02-20T02:44:42.108Z,1.50
2023-02-20T02:47:20.192Z,1.40
2023-02-20T02:49:53.479Z,1.60
2023-02-20T02:52:40.940Z,1.40
2023-02-20T02:55:11.200Z,1.30
2023-02-20T02:57:39.231Z,1.40
2023-02-20T03:00:16.514Z,1.30
2023-02-20T03:02:50.151Z,1.50
2023-02-20T03:05:20.370Z,1.40
2023-02-20T03:07:51.885Z,1.20
2023-02-20T03:10:21.843Z,1.50
2023-02-20T03:12:50.570Z,1.60
2023-02-20T03:15:46.770Z,1.30
2023-02-20T03:18:43.933Z,1.30
2023-02-20T03:21:15.770Z,1.40
2023-02-20T03:23:46.451Z,1.50
2023-02-20T03:26:18.873Z,1.40
2023-02-20T03:28:55.405Z,1.50
2023-02-20T03:31:35.522Z,1.30
2023-02-20T03:34:38.415Z,1.50
2023-02-20T03:37:28.940Z,1.40
2023-02-20T03:40:17.727Z,1.30
2023-02-20T03:43:06.866Z,1.40
2023-02-20T03:45:38.985Z,1.30
2023-02-20T03:48:10.365Z,1.40
2023-02-20T03:50:39.313Z,1.40
2023-02-20T03:53:07.642Z,1.20
2023-02-20T03:55:36.880Z,1.30
2023-02-20T03:58:08.701Z,1.30
2023-02-20T04:00:40.526Z,1.20
2023-02-20T04:03:12.132Z,1.50
2023-02-20T04:05:42.851Z,1.20
2023-02-20T04:08:16.438Z,1.20
2023-02-20T04:10:52.179Z,1.30
2023-02-20T04:13:24.700Z,1.20
2023-02-20T04:15:53.146Z,1.30
2023-02-20T04:18:21.784Z,1.40
2023-02-20T04:20:54.212Z,1.20
2023-02-20T04:23:26.346Z,1.40
2023-02-20T04:25:57.788Z,1.40
2023-02-20T04:28:26.728Z,1.20
2023-02-20T04:31:01.486Z,1.40
2023-02-20T04:33:30.862Z,1.60
2023-02-20T04:36:03.035Z,1.30
2023-02-20T04:38:31.287Z,1.10
2023-02-20T04:41:02.866Z,1.40
2023-02-20T04:43:31.506Z,1.30
2023-02-20T04:46:01.468Z,1.20
2023-02-20T04:48:29.789Z,1.20
2023-02-20T04:50:58.101Z,1.30
2023-02-20T04:53:26.146Z,1.40
2023-02-20T04:55:54.465Z,1.40
2023-02-20T04:58:25.001Z,1.50
2023-02-20T05:00:55.886Z,1.50
2023-02-20T05:03:24.185Z,1.30
2023-02-20T05:05:52.245Z,1.20
2023-02-20T05:08:20.118Z,1.40
2023-02-20T05:10:48.062Z,1.30
2023-02-20T05:13:18.750Z,1.40
2023-02-20T05:15:47.094Z,1.20
2023-02-20T05:18:29.866Z,1.40
2023-02-20T05:21:16.764Z,1.30
2023-02-20T05:23:48.802Z,1.30
2023-02-20T05:26:21.557Z,1.30
2023-02-20T05:28:49.630Z,1.20
2023-02-20T05:31:18.229Z,1.90
2023-02-20T05:33:46.331Z,1.30
2023-02-20T05:36:16.653Z,1.10
2023-02-20T05:38:49.275Z,1.30
2023-02-20T05:41:17.306Z,1.20
2023-02-20T05:43:46.094Z,1.40
2023-02-20T05:46:15.523Z,1.20
2023-02-20T05:48:43.527Z,1.20
2023-02-20T05:51:28.947Z,1.40
2023-02-20T05:53:57.081Z,1.40
2023-02-20T05:56:25.402Z,1.50
2023-02-20T05:58:53.362Z,1.30
2023-02-20T06:01:23.172Z,1.50
2023-02-20T06:03:51.588Z,1.40
2023-02-20T06:06:19.776Z,1.40
2023-02-20T06:08:48.383Z,1.60
2023-02-20T06:11:17.717Z,1.30
2023-02-20T06:13:46.293Z,1.40
2023-02-20T06:16:24.624Z,2.10
2023-02-20T06:18:54.838Z,1.50
2023-02-20T06:21:24.020Z,1.40
2023-02-20T06:23:54.970Z,1.30
2023-02-20T06:26:23.319Z,1.40
2023-02-20T06:28:52.299Z,1.40
2023-02-20T06:31:22.362Z,1.30
2023-02-20T06:33:50.322Z,1.50
2023-02-20T06:36:29.192Z,1.20
2023-02-20T06:38:58.301Z,1.40
2023-02-20T06:41:26.590Z,1.20
2023-02-20T06:43:54.525Z,1.40
2023-02-20T06:46:23.300Z,1.40
2023-02-20T06:48:53.295Z,1.40
2023-02-20T06:51:24.215Z,1.30
2023-02-20T06:53:52.063Z,1.70
2023-02-20T06:56:22.345Z,1.40
2023-02-20T06:58:54.010Z,1.40
2023-02-20T07:01:24.260Z,1.30
2023-02-20T07:03:53.575Z,1.40
2023-02-20T07:06:23.327Z,1.20
2023-02-20T07:08:52.530Z,1.30
2023-02-20T07:11:21.558Z,1.60
2023-02-20T07:13:50.498Z,1.30
2023-02-20T07:16:18.393Z,1.30
2023-02-20T07:18:47.372Z,1.30
2023-02-20T07:21:16.251Z,1.50
2023-02-20T07:23:45.344Z,1.60
2023-02-20T07:26:20.748Z,1.50
2023-02-20T07:28:48.742Z,1.50
2023-02-20T07:31:16.725Z,1.70
2023-02-20T07:33:45.166Z,1.80
2023-02-20T07:36:14.924Z,2.00
2023-02-20T07:38:43.520Z,2.00
2023-02-20T07:41:15.467Z,2.80
2023-02-20T07:43:43.463Z,2.10
2023-02-20T07:46:11.767Z,2.70
2023-02-20T07:48:41.639Z,2.40
2023-02-20T07:51:09.600Z,3.00
2023-02-20T07:53:37.738Z,2.40
2023-02-20T07:56:05.938Z,3.10
2023-02-20T07:58:34.220Z,3.20
2023-02-20T08:01:02.608Z,3.50
2023-02-20T08:03:31.697Z,2.60
2023-02-20T08:05:59.726Z,2.90
2023-02-20T08:08:31.879Z,2.80
2023-02-20T08:11:08.679Z,3.10
2023-02-20T08:13:42.180Z,5.70
2023-02-20T08:16:13.110Z,6.90
2023-02-20T08:18:41.885Z,6.60
2023-02-20T08:21:10.067Z,7.50
2023-02-20T08:23:39.787Z,10.90
2023-02-20T08:26:07.980Z,16.90
2023-02-20T08:28:36.845Z,12.30
2023-02-20T08:31:32.109Z,14.30
2023-02-20T08:34:05.171Z,13.90
2023-02-20T08:36:33.119Z,10.90
2023-02-20T08:39:03.156Z,9.80
2023-02-20T08:41:34.916Z,8.80
2023-02-20T08:44:02.810Z,7.90
2023-02-20T08:46:31.516Z,6.60
2023-02-20T08:49:00.029Z,5.90
2023-02-20T08:51:28.230Z,6.20
2023-02-20T08:53:56.190Z,5.60
2023-02-20T08:56:24.336Z,4.60
2023-02-20T08:58:54.692Z,3.80
2023-02-20T09:01:26.088Z,4.60
2023-02-20T09:03:56.495Z,3.90
2023-02-20T09:06:26.257Z,3.30
2023-02-20T09:08:54.138Z,4.10
2023-02-20T09:11:22.494Z,3.70
2023-02-20T09:13:51.834Z,3.60
2023-02-20T09:16:21.117Z,3.60
2023-02-20T09:18:50.108Z,3.60
2023-02-20T09:21:19.018Z,3.40
2023-02-20T09:23:47.263Z,3.00
2023-02-20T09:26:15.537Z,3.60
2023-02-20T09:28:45.518Z,3.70
2023-02-20T09:31:13.823Z,3.90
2023-02-20T09:33:50.937Z,4.50
2023-02-20T09:36:24.800Z,3.70
2023-02-20T09:39:55.503Z,4.30
2023-02-20T09:42:44.307Z,4.10
2023-02-20T09:45:17.510Z,3.40
2023-02-20T09:48:23.611Z,4.00
2023-02-20T09:51:01.395Z,3.50
2023-02-20T09:53:45.347Z,3.70
2023-02-20T09:56:19.695Z,3.70
2023-02-20T09:59:02.869Z,3.80
2023-02-20T10:01:38.082Z,2.70
2023-02-20T10:04:34.302Z,3.40
2023-02-20T10:07:34.777Z,3.40
2023-02-20T10:10:17.423Z,3.30
2023-02-20T10:13:01.010Z,3.20
2023-02-20T10:15:33.751Z,3.30
2023-02-20T10:18:14.035Z,3.50
2023-02-20T10:20:54.099Z,4.00
2023-02-20T10:24:05.066Z,3.60
2023-02-20T10:26:38.454Z,4.00
2023-02-20T10:29:24.275Z,3.60
2023-02-20T10:32:05.052Z,3.30
2023-02-20T10:34:45.575Z,3.70
2023-02-20T10:37:19.070Z,3.00
2023-02-20T10:40:13.159Z,3.70
2023-02-20T10:42:52.769Z,3.50
2023-02-20T10:45:32.726Z,3.00
2023-02-20T10:48:09.228Z,3.40
2023-02-20T10:51:04.913Z,3.70
2023-02-20T10:53:58.623Z,3.20
2023-02-20T10:56:40.203Z,3.00
2023-02-20T10:59:11.500Z,3.60
2023-02-20T11:01:44.200Z,3.40
2023-02-20T11:04:16.255Z,3.50
2023-02-20T11:06:56.843Z,3.60
2023-02-20T11:09:26.532Z,4.20
2023-02-20T11:11:56.312Z,3.80
2023-02-20T11:14:42.889Z,3.70
2023-02-20T11:17:19.550Z,3.40
2023-02-20T11:19:47.580Z,3.00
2023-02-20T11:22:16.377Z,3.10
2023-02-20T11:24:45.728Z,3.00
2023-02-20T11:27:16.032Z,3.40
2023-02-20T11:29:53.666Z,2.90
2023-02-20T11:32:28.884Z,2.70
2023-02-20T11:35:15.625Z,2.60
2023-02-20T11:37:55.623Z,3.10
2023-02-20T11:40:27.992Z,3.20
2023-02-20T11:42:56.726Z,3.10
2023-02-20T11:45:28.816Z,3.00
2023-02-20T11:48:10.468Z,4.60
2023-02-20T11:50:39.778Z,3.50
2023-02-20T11:53:08.944Z,4.90
2023-02-20T11:55:37.460Z,3.60
2023-02-20T11:58:05.966Z,3.70
2023-02-20T12:00:48.158Z,4.00
2023-02-20T12:03:25.660Z,4.00
2023-02-20T12:05:54.625Z,4.20
2023-02-20T12:08:29.765Z,4.40
2023-02-20T12:11:02.101Z,3.60
2023-02-20T12:13:32.387Z,3.30
2023-02-20T12:16:18.379Z,3.60
2023-02-20T12:19:09.967Z,4.90
2023-02-20T12:22:02.926Z,3.00
2023-02-20T12:24:45.508Z,3.20
2023-02-20T12:27:35.820Z,3.00
2023-02-20T12:30:26.609Z,2.80
2023-02-20T12:33:11.587Z,3.10
2023-02-20T12:35:55.313Z,2.70
2023-02-20T12:38:39.415Z,3.10
2023-02-20T12:41:12.377Z,3.30
2023-02-20T12:43:45.195Z,2.90
2023-02-20T12:46:31.454Z,3.00
2023-02-20T12:49:15.294Z,3.10
2023-02-20T12:51:58.517Z,3.30
2023-02-20T12:55:11.620Z,3.70
2023-02-20T12:58:11.958Z,3.00
2023-02-20T13:00:41.980Z,3.40
2023-02-20T13:03:17.038Z,3.00
2023-02-20T13:05:48.076Z,3.10
2023-02-20T13:08:21.591Z,3.30
2023-02-20T13:11:09.221Z,3.30
2023-02-20T13:14:16.947Z,3.10
2023-02-20T13:16:52.415Z,2.80
2023-02-20T13:19:31.282Z,3.10
2023-02-20T13:21:59.336Z,3.40
2023-02-20T13:24:29.874Z,3.20
2023-02-20T13:27:06.891Z,3.10
2023-02-20T13:29:39.781Z,3.00
2023-02-20T13:32:19.588Z,3.00
2023-02-20T13:34:47.947Z,2.90
2023-02-20T13:37:41.000Z,3.40
2023-02-20T13:40:28.517Z,3.30
2023-02-20T13:43:15.221Z,3.30
2023-02-20T13:45:44.115Z,3.40
2023-02-20T13:48:21.405Z,3.20
2023-02-20T13:50:49.638Z,4.30
2023-02-20T13:53:17.564Z,3.60
2023-02-20T13:55:45.665Z,3.80
2023-02-20T13:58:15.336Z,3.80
2023-02-20T14:00:49.281Z,3.60
2023-02-20T14:03:30.584Z,3.20
2023-02-20T14:06:17.633Z,3.90
2023-02-20T14:08:48.263Z,4.20
2023-02-20T14:11:32.214Z,5.10
2023-02-20T14:14:05.276Z,3.90
2023-02-20T14:16:41.884Z,4.40
2023-02-20T14:19:22.605Z,4.30
2023-02-20T14:21:50.560Z,3.80
2023-02-20T14:24:27.351Z,3.90
2023-02-20T14:26:59.464Z,4.00
2023-02-20T14:29:28.637Z,3.90
2023-02-20T14:31:58.205Z,3.80
2023-02-20T14:34:37.199Z,5.30
2023-02-20T14:37:20.331Z,3.90
2023-02-20T14:39:50.836Z,4.90
2023-02-20T14:42:23.711Z,8.80
2023-02-20T14:45:03.579Z,7.50
2023-02-20T14:47:35.915Z,8.00
2023-02-20T14:50:28.259Z,9.00
2023-02-20T14:53:17.851Z,7.90
2023-02-20T14:55:46.151Z,7.00
2023-02-20T14:58:15.182Z,6.60
2023-02-20T15:00:43.943Z,7.20
2023-02-20T15:03:30.268Z,6.70
2023-02-20T15:06:03.640Z,6.90
2023-02-20T15:08:33.300Z,7.10
2023-02-20T15:11:10.159Z,6.60
2023-02-20T15:13:45.094Z,7.00
2023-02-20T15:16:27.450Z,7.20
2023-02-20T15:18:55.324Z,6.10
2023-02-20T15:21:32.626Z,6.60
2023-02-20T15:24:34.071Z,5.70
2023-02-20T15:27:09.759Z,5.50
2023-02-20T15:29:37.587Z,6.20
2023-02-20T15:32:14.477Z,6.00
2023-02-20T15:34:43.088Z,5.80
2023-02-20T15:37:17.430Z,6.20
2023-02-20T15:39:49.524Z,6.10
2023-02-20T15:42:18.452Z,5.70
2023-02-20T15:44:46.479Z,6.00
2023-02-20T15:47:14.644Z,5.90
2023-02-20T15:49:43.443Z,6.30
2023-02-20T15:52:16.623Z,5.70
2023-02-20T15:54:51.926Z,6.10
2023-02-20T15:57:19.973Z,5.90
2023-02-20T15:59:48.020Z,6.10
2023-02-20T16:02:20.634Z,5.80
2023-02-20T16:04:49.448Z,5.40
2023-02-20T16:07:18.909Z,6.70
2023-02-20T16:09:48.537Z,6.00
2023-02-20T16:12:19.418Z,5.30
2023-02-20T16:14:53.527Z,5.90
2023-02-20T16:17:24.331Z,5.50
2023-02-20T16:19:52.662Z,5.90
2023-02-20T16:22:21.336Z,5.60
2023-02-20T16:24:49.329Z,5.80
2023-02-20T16:27:24.344Z,5.90
2023-02-20T16:32:23.893Z,5.60
2023-02-20T16:34:52.274Z,5.60
2023-02-20T16:37:20.623Z,6.20
2023-02-20T16:39:48.720Z,5.00
2023-02-20T16:42:22.872Z,5.50
2023-02-20T16:44:50.973Z,5.70
2023-02-20T16:47:20.404Z,5.50
2023-02-20T16:49:49.017Z,5.90
2023-02-20T16:52:29.251Z,5.70
2023-02-20T16:54:57.776Z,5.40
2023-02-20T16:57:25.742Z,5.30
2023-02-20T16:59:56.191Z,5.00
2023-02-20T17:02:27.168Z,4.90
2023-02-20T17:04:56.173Z,4.30
2023-02-20T17:07:25.012Z,5.20
2023-02-20T17:09:53.877Z,4.60
2023-02-20T17:12:23.869Z,5.30
2023-02-20T17:14:53.786Z,4.80
2023-02-20T17:17:25.502Z,4.70
2023-02-20T17:19:55.333Z,4.70
2023-02-20T17:22:23.704Z,5.50
2023-02-20T17:24:52.362Z,5.00
2023-02-20T17:27:20.380Z,5.20
2023-02-20T17:29:48.829Z,5.30
2023-02-20T17:32:17.218Z,5.00
2023-02-20T17:34:46.477Z,4.70
2023-02-20T17:37:16.220Z,4.80
2023-02-20T17:39:44.093Z,5.00
2023-02-20T17:42:12.703Z,5.40
2023-02-20T17:44:45.345Z,4.80
2023-02-20T17:47:13.349Z,4.90
2023-02-20T17:49:50.922Z,4.10
2023-02-20T17:52:21.864Z,4.30
2023-02-20T17:54:50.850Z,4.40
2023-02-20T17:57:19.544Z,4.50
2023-02-20T17:59:53.624Z,4.40
2023-02-20T18:02:21.921Z,4.10
2023-02-20T18:04:50.155Z,4.20
2023-02-20T18:07:19.805Z,4.10
2023-02-20T18:09:49.550Z,3.80
2023-02-20T18:12:20.854Z,4.70
2023-02-20T18:14:50.462Z,4.00
2023-02-20T18:17:18.603Z,4.10
2023-02-20T18:19:47.230Z,3.90
2023-02-20T18:22:15.728Z,3.90
2023-02-20T18:24:45.642Z,3.60
2023-02-20T18:27:14.111Z,3.50
2023-02-20T18:29:45.050Z,3.90
2023-02-20T18:32:15.948Z,3.70
2023-02-20T18:34:46.044Z,3.80
2023-02-20T18:37:14.798Z,3.70
2023-02-20T18:39:44.104Z,3.70
2023-02-20T18:42:14.376Z,3.30
2023-02-20T18:44:46.772Z,3.40
2023-02-20T18:47:17.842Z,3.30
2023-02-20T18:49:50.602Z,3.00
2023-02-20T18:52:23.591Z,3.60
2023-02-20T18:54:51.657Z,3.30
2023-02-20T18:57:20.038Z,3.40
2023-02-20T18:59:50.025Z,3.30
2023-02-20T19:02:20.174Z,3.30
2023-02-20T19:04:50.977Z,3.20
2023-02-20T19:07:20.130Z,3.20
2023-02-20T19:09:54.098Z,2.90
2023-02-20T19:12:23.970Z,3.50
2023-02-20T19:14:52.098Z,3.10
2023-02-20T19:17:46.317Z,3.30
2023-02-20T19:20:24.894Z,3.20
2023-02-20T19:22:55.898Z,3.20
2023-02-20T19:25:26.029Z,2.90
2023-02-20T19:27:55.275Z,3.00
2023-02-20T19:30:23.353Z,3.30
2023-02-20T19:32:54.784Z,3.00
2023-02-20T19:35:25.136Z,2.90
2023-02-20T19:37:55.396Z,3.20
2023-02-20T19:40:23.412Z,3.00
2023-02-20T19:42:51.984Z,3.00
2023-02-20T19:45:20.152Z,3.00
2023-02-20T19:47:48.359Z,2.80
2023-02-20T19:50:16.358Z,3.10
2023-02-20T19:52:44.671Z,3.10
2023-02-20T19:55:19.666Z,3.10
2023-02-20T19:57:48.978Z,2.80
2023-02-20T20:00:18.186Z,2.60
2023-02-20T20:02:47.116Z,2.80
2023-02-20T20:05:15.777Z,3.00
2023-02-20T20:07:44.372Z,2.90
2023-02-20T20:10:20.053Z,2.90
2023-02-20T20:12:48.280Z,2.70
2023-02-20T20:15:18.891Z,2.70
2023-02-20T20:17:54.202Z,2.40
2023-02-20T20:20:22.973Z,2.50
2023-02-20T20:22:53.875Z,2.50
2023-02-20T20:25:24.053Z,2.60
2023-02-20T20:27:52.451Z,2.40
2023-02-20T20:30:31.108Z,2.50
2023-02-20T20:32:59.772Z,3.00
2023-02-20T20:35:28.836Z,2.40
2023-02-20T20:37:57.225Z,2.40
2023-02-20T20:40:26.261Z,2.70
2023-02-20T20:42:54.634Z,2.80
2023-02-20T20:45:22.788Z,2.60
2023-02-20T20:47:51.067Z,2.20
2023-02-20T20:50:21.290Z,2.20
2023-02-20T20:52:50.099Z,2.30
2023-02-20T20:55:18.083Z,2.40
2023-02-20T20:57:46.884Z,2.30
2023-02-20T21:00:23.388Z,2.20
2023-02-20T21:02:52.134Z,2.20
2023-02-20T21:05:22.231Z,2.10
2023-02-20T21:07:50.216Z,2.10
2023-02-20T21:10:18.593Z,2.10
2023-02-20T21:12:46.618Z,2.30
2023-02-20T21:15:20.321Z,1.90
2023-02-20T21:17:48.659Z,2.40
2023-02-20T21:20:24.681Z,2.40
2023-02-20T21:22:52.844Z,2.10
2023-02-20T21:25:21.844Z,2.00
2023-02-20T21:27:50.416Z,2.30
2023-02-20T21:30:36.171Z,2.10
2023-02-20T21:33:05.083Z,2.30
2023-02-20T21:35:33.088Z,2.10
2023-02-20T21:38:01.323Z,2.10
2023-02-20T21:40:29.645Z,2.10
2023-02-20T21:43:17.430Z,2.00
2023-02-20T21:45:45.867Z,2.30
2023-02-20T21:48:13.826Z,2.10
2023-02-20T21:50:41.746Z,1.90
2023-02-20T21:53:16.161Z,2.00
2023-02-20T21:57:26.586Z,2.00
2023-02-20T21:59:54.792Z,2.00
2023-02-20T22:02:22.827Z,2.10
2023-02-20T22:04:50.866Z,2.30
2023-02-20T22:07:37.716Z,2.00
2023-02-20T22:10:25.156Z,1.90
2023-02-20T22:13:12.663Z,2.10
2023-02-20T22:16:00.113Z,2.00
2023-02-20T22:18:47.689Z,2.00
2023-02-20T22:24:37.883Z,1.80
2023-02-20T22:27:26.767Z,2.30
2023-02-20T22:30:13.801Z,2.10
2023-02-20T22:33:00.984Z,1.90
2023-02-20T22:35:48.152Z,1.90
2023-02-20T22:38:36.401Z,2.00
2023-02-20T22:41:30.056Z,2.20
2023-02-20T22:44:17.255Z,2.10
2023-02-20T22:47:04.154Z,2.00
2023-02-20T22:49:51.311Z,2.10
2023-02-20T22:52:39.104Z,1.90
2023-02-20T22:55:25.663Z,1.90
2023-02-20T22:58:13.076Z,1.80
2023-02-20T23:01:00.207Z,2.10
2023-02-20T23:03:47.171Z,2.00
2023-02-20T23:06:39.087Z,1.80
2023-02-20T23:09:26.324Z,1.90
2023-02-20T23:12:14.711Z,1.80
2023-02-20T23:15:02.722Z,1.80
2023-02-20T23:17:53.757Z,2.10
2023-02-20T23:20:41.445Z,1.90
2023-02-20T23:23:29.928Z,1.80
2023-02-20T23:26:17.162Z,2.00
2023-02-20T23:29:07.071Z,1.80
2023-02-20T23:31:59.733Z,2.20
2023-02-20T23:34:47.134Z,1.90
2023-02-20T23:37:34.127Z,1.70
2023-02-20T23:40:27.301Z,1.80
2023-02-20T23:43:26.354Z,2.00
2023-02-20T23:46:13.544Z,2.00
2023-02-20T23:49:00.306Z,1.80
2023-02-20T23:51:47.099Z,1.50
2023-02-20T23:54:33.779Z,2.00
2023-02-20T23:57:21.250Z,1.80
